Longmont, Colorado
Current Conditions -  °F | °C
As of 10:15 PM on Friday 28 Nov 2014 (Local Time) from KLMO Reporting Station
Clear Clear  
Wind Chill: 61°   Ceiling: Unl
Heat Index: 61°   Visibility: 10mi
Dew Point:   Wind: 14mph
Humidity: 13%   Direction: 280°W
Pressure: 29.78"   Gusts: 18mph
Location:  40.16°N, 105.1°W
Report Text: KLMO 290515Z AUTO 28012G16KT 230V310 10SM CLR 16/M13 A2978 RMK AO2 T01611128
Loading
Personal Weather Stations






























Interactive Weather Map New forecast layout! Learn more

10-Day Weather Forecast

Advertisements
Track Severe Weather on mobile